sensor_id;sensor_type;location;lat;lon;timestamp;temperature;humidity
26378;DHT22;14078;50.974;6.786;2023-02-28T00:00:17;0.70;99.90
26378;DHT22;14078;50.974;6.786;2023-02-28T00:02:44;0.60;99.90
26378;DHT22;14078;50.974;6.786;2023-02-28T00:05:12;0.60;99.90
26378;DHT22;14078;50.974;6.786;2023-02-28T00:07:38;0.60;99.90
26378;DHT22;14078;50.974;6.786;2023-02-28T00:10:06;0.60;1.00
26378;DHT22;14078;50.974;6.786;2023-02-28T00:12:34;0.50;99.90
26378;DHT22;14078;50.974;6.786;2023-02-28T00:15:01;0.50;92.80
26378;DHT22;14078;50.974;6.786;2023-02-28T00:17:27;0.50;99.90
26378;DHT22;14078;50.974;6.786;2023-02-28T00:19:54;0.50;1.00
26378;DHT22;14078;50.974;6.786;2023-02-28T00:22:21;0.50;99.90
26378;DHT22;14078;50.974;6.786;2023-02-28T00:24:48;0.40;99.90
26378;DHT22;14078;50.974;6.786;2023-02-28T00:27:14;0.40;1.00
26378;DHT22;14078;50.974;6.786;2023-02-28T00:29:42;0.40;99.90
26378;DHT22;14078;50.974;6.786;2023-02-28T00:32:09;0.40;1.00
26378;DHT22;14078;50.974;6.786;2023-02-28T00:34:35;0.40;1.00
26378;DHT22;14078;50.974;6.786;2023-02-28T00:37:03;0.40;1.00
26378;DHT22;14078;50.974;6.786;2023-02-28T00:39:30;0.40;1.00
26378;DHT22;14078;50.974;6.786;2023-02-28T00:41:56;0.40;1.00
26378;DHT22;14078;50.974;6.786;2023-02-28T00:44:23;0.40;1.00
26378;DHT22;14078;50.974;6.786;2023-02-28T00:46:51;0.30;1.00
26378;DHT22;14078;50.974;6.786;2023-02-28T00:49:19;0.40;1.00
26378;DHT22;14078;50.974;6.786;2023-02-28T00:51:45;0.40;1.00
26378;DHT22;14078;50.974;6.786;2023-02-28T00:54:12;0.40;1.00
26378;DHT22;14078;50.974;6.786;2023-02-28T00:56:39;0.40;1.00
26378;DHT22;14078;50.974;6.786;2023-02-28T00:59:05;0.40;1.00
26378;DHT22;14078;50.974;6.786;2023-02-28T01:01:32;0.40;1.00
26378;DHT22;14078;50.974;6.786;2023-02-28T01:04:00;0.40;1.00
26378;DHT22;14078;50.974;6.786;2023-02-28T01:06:26;0.30;1.00
26378;DHT22;14078;50.974;6.786;2023-02-28T01:08:53;0.40;1.00
26378;DHT22;14078;50.974;6.786;2023-02-28T01:11:19;0.30;1.00
26378;DHT22;14078;50.974;6.786;2023-02-28T01:13:46;0.30;1.00
26378;DHT22;14078;50.974;6.786;2023-02-28T01:16:13;0.30;1.00
26378;DHT22;14078;50.974;6.786;2023-02-28T01:18:39;0.30;1.00
26378;DHT22;14078;50.974;6.786;2023-02-28T01:21:08;0.30;1.00
26378;DHT22;14078;50.974;6.786;2023-02-28T01:23:35;0.30;1.00
26378;DHT22;14078;50.974;6.786;2023-02-28T01:26:03;0.30;1.00
26378;DHT22;14078;50.974;6.786;2023-02-28T01:28:30;0.20;1.00
26378;DHT22;14078;50.974;6.786;2023-02-28T01:30:56;0.10;1.00
26378;DHT22;14078;50.974;6.786;2023-02-28T01:33:23;0.10;1.00
26378;DHT22;14078;50.974;6.786;2023-02-28T01:35:56;0.10;1.00
26378;DHT22;14078;50.974;6.786;2023-02-28T01:38:24;0.10;1.00
26378;DHT22;14078;50.974;6.786;2023-02-28T01:40:51;0.10;1.00
26378;DHT22;14078;50.974;6.786;2023-02-28T01:43:20;0.00;1.00
26378;DHT22;14078;50.974;6.786;2023-02-28T01:45:47;-0.10;1.00
26378;DHT22;14078;50.974;6.786;2023-02-28T01:48:13;-0.10;1.00
26378;DHT22;14078;50.974;6.786;2023-02-28T01:50:41;0.00;1.00
26378;DHT22;14078;50.974;6.786;2023-02-28T01:53:10;-0.10;1.00
26378;DHT22;14078;50.974;6.786;2023-02-28T01:55:40;-0.10;1.00
26378;DHT22;14078;50.974;6.786;2023-02-28T01:58:08;-0.20;1.00
26378;DHT22;14078;50.974;6.786;2023-02-28T02:00:35;-0.10;1.00
26378;DHT22;14078;50.974;6.786;2023-02-28T02:03:05;-0.10;1.00
26378;DHT22;14078;50.974;6.786;2023-02-28T02:05:32;-0.20;1.00
26378;DHT22;14078;50.974;6.786;2023-02-28T02:08:01;-0.20;9.20
26378;DHT22;14078;50.974;6.786;2023-02-28T02:10:29;-0.20;6.00
26378;DHT22;14078;50.974;6.786;2023-02-28T02:13:08;-0.10;9.20
26378;DHT22;14078;50.974;6.786;2023-02-28T02:15:38;-0.10;6.90
26378;DHT22;14078;50.974;6.786;2023-02-28T02:18:08;0.00;1.00
26378;DHT22;14078;50.974;6.786;2023-02-28T02:20:44;0.00;1.00
26378;DHT22;14078;50.974;6.786;2023-02-28T02:23:27;0.00;1.00
26378;DHT22;14078;50.974;6.786;2023-02-28T02:26:01;0.00;1.00
26378;DHT22;14078;50.974;6.786;2023-02-28T02:28:42;0.00;1.00
26378;DHT22;14078;50.974;6.786;2023-02-28T02:31:28;0.00;1.00
26378;DHT22;14078;50.974;6.786;2023-02-28T02:34:06;-0.10;1.00
26378;DHT22;14078;50.974;6.786;2023-02-28T02:36:35;-0.10;1.00
26378;DHT22;14078;50.974;6.786;2023-02-28T02:39:04;-0.10;1.00
26378;DHT22;14078;50.974;6.786;2023-02-28T02:41:33;-0.10;1.00
26378;DHT22;14078;50.974;6.786;2023-02-28T02:44:02;-0.10;1.00
26378;DHT22;14078;50.974;6.786;2023-02-28T02:46:32;-0.10;1.00
26378;DHT22;14078;50.974;6.786;2023-02-28T02:49:00;-0.10;1.00
26378;DHT22;14078;50.974;6.786;2023-02-28T02:51:28;0.00;1.00
26378;DHT22;14078;50.974;6.786;2023-02-28T02:53:57;0.00;1.00
26378;DHT22;14078;50.974;6.786;2023-02-28T02:56:27;0.00;1.00
26378;DHT22;14078;50.974;6.786;2023-02-28T02:58:56;0.00;4.50
26378;DHT22;14078;50.974;6.786;2023-02-28T03:01:24;0.00;1.00
26378;DHT22;14078;50.974;6.786;2023-02-28T03:03:54;-0.10;1.00
26378;DHT22;14078;50.974;6.786;2023-02-28T03:06:21;-0.10;1.00
26378;DHT22;14078;50.974;6.786;2023-02-28T03:08:49;-0.10;99.90
26378;DHT22;14078;50.974;6.786;2023-02-28T03:11:16;-0.10;99.90
26378;DHT22;14078;50.974;6.786;2023-02-28T03:13:52;-0.20;99.90
26378;DHT22;14078;50.974;6.786;2023-02-28T03:19:06;-0.30;1.00
26378;DHT22;14078;50.974;6.786;2023-02-28T03:21:37;-0.20;1.00
26378;DHT22;14078;50.974;6.786;2023-02-28T03:24:08;-0.30;1.00
26378;DHT22;14078;50.974;6.786;2023-02-28T03:26:38;-0.30;1.00
26378;DHT22;14078;50.974;6.786;2023-02-28T03:29:07;-0.30;1.00
26378;DHT22;14078;50.974;6.786;2023-02-28T03:31:38;-0.20;99.90
26378;DHT22;14078;50.974;6.786;2023-02-28T03:34:06;-0.20;99.90
26378;DHT22;14078;50.974;6.786;2023-02-28T03:36:36;-0.20;1.00
26378;DHT22;14078;50.974;6.786;2023-02-28T03:39:11;-0.20;1.00
26378;DHT22;14078;50.974;6.786;2023-02-28T03:41:41;-0.10;1.00
26378;DHT22;14078;50.974;6.786;2023-02-28T03:44:10;-0.20;99.90
26378;DHT22;14078;50.974;6.786;2023-02-28T03:46:41;-0.20;99.90
26378;DHT22;14078;50.974;6.786;2023-02-28T03:49:11;-0.20;18.90
26378;DHT22;14078;50.974;6.786;2023-02-28T03:51:40;-0.10;1.00
26378;DHT22;14078;50.974;6.786;2023-02-28T03:54:09;-0.20;99.90
26378;DHT22;14078;50.974;6.786;2023-02-28T03:56:38;-0.20;1.00
26378;DHT22;14078;50.974;6.786;2023-02-28T03:59:06;-0.30;99.90
26378;DHT22;14078;50.974;6.786;2023-02-28T04:01:35;-0.40;99.90
26378;DHT22;14078;50.974;6.786;2023-02-28T04:04:02;-0.40;1.00
26378;DHT22;14078;50.974;6.786;2023-02-28T04:06:30;-0.40;1.00
26378;DHT22;14078;50.974;6.786;2023-02-28T04:08:57;-0.40;1.00
26378;DHT22;14078;50.974;6.786;2023-02-28T04:11:27;-0.40;1.00
26378;DHT22;14078;50.974;6.786;2023-02-28T04:13:56;-0.50;99.90
26378;DHT22;14078;50.974;6.786;2023-02-28T04:16:23;-0.50;99.90
26378;DHT22;14078;50.974;6.786;2023-02-28T04:18:49;-0.50;1.00
26378;DHT22;14078;50.974;6.786;2023-02-28T04:21:16;-0.50;1.00
26378;DHT22;14078;50.974;6.786;2023-02-28T04:23:45;-0.50;1.00
26378;DHT22;14078;50.974;6.786;2023-02-28T04:26:12;-0.50;1.00
26378;DHT22;14078;50.974;6.786;2023-02-28T04:28:40;-0.60;1.00
26378;DHT22;14078;50.974;6.786;2023-02-28T04:31:06;-0.60;1.00
26378;DHT22;14078;50.974;6.786;2023-02-28T04:33:33;-0.70;1.00
26378;DHT22;14078;50.974;6.786;2023-02-28T04:36:00;-0.70;1.00
26378;DHT22;14078;50.974;6.786;2023-02-28T04:38:28;-0.70;1.00
26378;DHT22;14078;50.974;6.786;2023-02-28T04:40:56;-0.80;1.00
26378;DHT22;14078;50.974;6.786;2023-02-28T04:43:23;-0.80;1.00
26378;DHT22;14078;50.974;6.786;2023-02-28T04:45:50;-0.90;1.00
26378;DHT22;14078;50.974;6.786;2023-02-28T04:48:17;-0.90;1.00
26378;DHT22;14078;50.974;6.786;2023-02-28T04:50:44;-0.90;1.00
26378;DHT22;14078;50.974;6.786;2023-02-28T04:53:10;-0.90;1.00
26378;DHT22;14078;50.974;6.786;2023-02-28T04:55:37;-0.90;1.00
26378;DHT22;14078;50.974;6.786;2023-02-28T04:58:05;-0.90;1.00
26378;DHT22;14078;50.974;6.786;2023-02-28T05:00:31;-0.90;1.00
26378;DHT22;14078;50.974;6.786;2023-02-28T05:02:59;-0.90;1.00
26378;DHT22;14078;50.974;6.786;2023-02-28T05:05:26;-0.90;1.00
26378;DHT22;14078;50.974;6.786;2023-02-28T05:07:52;-0.90;1.00
26378;DHT22;14078;50.974;6.786;2023-02-28T05:10:20;-0.90;27.30
26378;DHT22;14078;50.974;6.786;2023-02-28T05:12:47;-0.90;39.20
26378;DHT22;14078;50.974;6.786;2023-02-28T05:15:14;-0.90;40.10
26378;DHT22;14078;50.974;6.786;2023-02-28T05:17:41;-0.90;32.50
26378;DHT22;14078;50.974;6.786;2023-02-28T05:20:11;-0.90;26.30
26378;DHT22;14078;50.974;6.786;2023-02-28T05:22:38;-0.90;28.80
26378;DHT22;14078;50.974;6.786;2023-02-28T05:25:05;-0.90;33.90
26378;DHT22;14078;50.974;6.786;2023-02-28T05:27:32;-0.90;41.50
26378;DHT22;14078;50.974;6.786;2023-02-28T05:29:59;-0.90;47.90
26378;DHT22;14078;50.974;6.786;2023-02-28T05:32:28;-0.90;36.50
26378;DHT22;14078;50.974;6.786;2023-02-28T05:34:55;-0.90;19.40
26378;DHT22;14078;50.974;6.786;2023-02-28T05:37:23;-0.90;1.00
26378;DHT22;14078;50.974;6.786;2023-02-28T05:39:49;-0.90;1.00
26378;DHT22;14078;50.974;6.786;2023-02-28T05:42:16;-0.90;1.00
26378;DHT22;14078;50.974;6.786;2023-02-28T05:44:42;-0.90;1.00
26378;DHT22;14078;50.974;6.786;2023-02-28T05:47:09;-0.90;1.00
26378;DHT22;14078;50.974;6.786;2023-02-28T05:49:35;-0.90;1.00
26378;DHT22;14078;50.974;6.786;2023-02-28T05:52:02;-1.00;1.00
26378;DHT22;14078;50.974;6.786;2023-02-28T05:54:30;-1.00;1.00
26378;DHT22;14078;50.974;6.786;2023-02-28T05:56:56;-1.00;1.00
26378;DHT22;14078;50.974;6.786;2023-02-28T05:59:23;-1.10;1.00
26378;DHT22;14078;50.974;6.786;2023-02-28T06:01:49;-1.20;1.00
26378;DHT22;14078;50.974;6.786;2023-02-28T06:04:19;-1.20;1.00
26378;DHT22;14078;50.974;6.786;2023-02-28T06:06:46;-1.20;1.00
26378;DHT22;14078;50.974;6.786;2023-02-28T06:09:12;-1.20;1.00
26378;DHT22;14078;50.974;6.786;2023-02-28T06:11:41;-1.30;1.00
26378;DHT22;14078;50.974;6.786;2023-02-28T06:14:09;-1.30;1.00
26378;DHT22;14078;50.974;6.786;2023-02-28T06:16:39;-1.30;1.00
26378;DHT22;14078;50.974;6.786;2023-02-28T06:19:06;-1.30;1.00
26378;DHT22;14078;50.974;6.786;2023-02-28T06:21:32;-1.20;1.00
26378;DHT22;14078;50.974;6.786;2023-02-28T06:23:59;-1.20;1.00
26378;DHT22;14078;50.974;6.786;2023-02-28T06:26:25;-1.20;1.00
26378;DHT22;14078;50.974;6.786;2023-02-28T06:28:53;-1.30;1.00
26378;DHT22;14078;50.974;6.786;2023-02-28T06:31:20;-1.20;1.00
26378;DHT22;14078;50.974;6.786;2023-02-28T06:33:47;-1.20;1.00
26378;DHT22;14078;50.974;6.786;2023-02-28T06:36:14;-1.20;1.00
26378;DHT22;14078;50.974;6.786;2023-02-28T06:38:41;-1.20;1.00
26378;DHT22;14078;50.974;6.786;2023-02-28T06:41:08;-1.20;1.00
26378;DHT22;14078;50.974;6.786;2023-02-28T06:43:37;-1.20;1.00
26378;DHT22;14078;50.974;6.786;2023-02-28T06:46:06;-1.20;1.00
26378;DHT22;14078;50.974;6.786;2023-02-28T06:48:33;-1.20;1.00
26378;DHT22;14078;50.974;6.786;2023-02-28T06:51:03;-1.10;1.00
26378;DHT22;14078;50.974;6.786;2023-02-28T06:53:30;-1.00;99.90
26378;DHT22;14078;50.974;6.786;2023-02-28T06:55:56;-0.90;1.00
26378;DHT22;14078;50.974;6.786;2023-02-28T06:58:23;-0.80;1.00
26378;DHT22;14078;50.974;6.786;2023-02-28T07:00:50;-0.60;99.90
26378;DHT22;14078;50.974;6.786;2023-02-28T07:03:18;-0.50;99.90
26378;DHT22;14078;50.974;6.786;2023-02-28T07:05:44;-0.30;99.90
26378;DHT22;14078;50.974;6.786;2023-02-28T07:08:11;-0.20;99.90
26378;DHT22;14078;50.974;6.786;2023-02-28T07:10:38;-0.10;99.90
26378;DHT22;14078;50.974;6.786;2023-02-28T07:13:05;-0.10;99.90
26378;DHT22;14078;50.974;6.786;2023-02-28T07:15:32;0.00;99.90
26378;DHT22;14078;50.974;6.786;2023-02-28T07:17:59;0.00;95.20
26378;DHT22;14078;50.974;6.786;2023-02-28T07:20:26;0.10;99.90
26378;DHT22;14078;50.974;6.786;2023-02-28T07:22:53;0.20;1.00
26378;DHT22;14078;50.974;6.786;2023-02-28T07:25:21;0.20;99.90
26378;DHT22;14078;50.974;6.786;2023-02-28T07:27:48;0.30;99.90
26378;DHT22;14078;50.974;6.786;2023-02-28T07:30:15;0.30;98.40
26378;DHT22;14078;50.974;6.786;2023-02-28T07:32:41;0.40;99.90
26378;DHT22;14078;50.974;6.786;2023-02-28T07:35:08;0.40;99.90
26378;DHT22;14078;50.974;6.786;2023-02-28T07:37:36;0.50;69.80
26378;DHT22;14078;50.974;6.786;2023-02-28T07:40:03;0.50;27.70
26378;DHT22;14078;50.974;6.786;2023-02-28T07:42:33;0.60;99.90
26378;DHT22;14078;50.974;6.786;2023-02-28T07:45:00;0.70;1.00
26378;DHT22;14078;50.974;6.786;2023-02-28T07:47:26;0.70;22.90
26378;DHT22;14078;50.974;6.786;2023-02-28T07:49:54;0.70;99.90
26378;DHT22;14078;50.974;6.786;2023-02-28T07:52:21;0.80;1.00
26378;DHT22;14078;50.974;6.786;2023-02-28T07:54:50;0.80;1.00
26378;DHT22;14078;50.974;6.786;2023-02-28T07:57:16;0.90;1.00
26378;DHT22;14078;50.974;6.786;2023-02-28T07:59:43;1.00;1.00
26378;DHT22;14078;50.974;6.786;2023-02-28T08:02:10;1.00;1.00
26378;DHT22;14078;50.974;6.786;2023-02-28T08:04:38;1.10;1.00
26378;DHT22;14078;50.974;6.786;2023-02-28T08:07:05;1.20;1.00
26378;DHT22;14078;50.974;6.786;2023-02-28T08:09:31;1.20;1.00
26378;DHT22;14078;50.974;6.786;2023-02-28T08:11:59;1.30;1.00
26378;DHT22;14078;50.974;6.786;2023-02-28T08:14:26;1.30;1.00
26378;DHT22;14078;50.974;6.786;2023-02-28T08:16:52;1.40;1.00
26378;DHT22;14078;50.974;6.786;2023-02-28T08:19:19;1.40;1.00
26378;DHT22;14078;50.974;6.786;2023-02-28T08:21:46;1.40;1.00
26378;DHT22;14078;50.974;6.786;2023-02-28T08:24:12;1.60;1.00
26378;DHT22;14078;50.974;6.786;2023-02-28T08:26:39;1.60;1.00
26378;DHT22;14078;50.974;6.786;2023-02-28T08:29:07;1.70;1.00
26378;DHT22;14078;50.974;6.786;2023-02-28T08:31:33;1.70;1.00
26378;DHT22;14078;50.974;6.786;2023-02-28T08:34:02;1.80;1.00
26378;DHT22;14078;50.974;6.786;2023-02-28T08:36:30;1.80;1.00
26378;DHT22;14078;50.974;6.786;2023-02-28T08:38:57;1.90;1.00
26378;DHT22;14078;50.974;6.786;2023-02-28T08:41:24;1.90;1.00
26378;DHT22;14078;50.974;6.786;2023-02-28T08:43:51;1.90;1.00
26378;DHT22;14078;50.974;6.786;2023-02-28T08:46:20;2.00;1.00
26378;DHT22;14078;50.974;6.786;2023-02-28T08:48:47;2.00;1.00
26378;DHT22;14078;50.974;6.786;2023-02-28T08:51:14;2.00;1.00
26378;DHT22;14078;50.974;6.786;2023-02-28T08:53:41;2.10;1.00
26378;DHT22;14078;50.974;6.786;2023-02-28T08:56:13;2.10;1.00
26378;DHT22;14078;50.974;6.786;2023-02-28T08:58:41;2.10;1.00
26378;DHT22;14078;50.974;6.786;2023-02-28T09:01:08;2.10;1.00
26378;DHT22;14078;50.974;6.786;2023-02-28T09:06:39;2.20;1.00
26378;DHT22;14078;50.974;6.786;2023-02-28T09:09:06;2.20;1.00
26378;DHT22;14078;50.974;6.786;2023-02-28T09:11:32;2.30;1.00
26378;DHT22;14078;50.974;6.786;2023-02-28T09:13:59;2.30;1.00
26378;DHT22;14078;50.974;6.786;2023-02-28T09:16:28;2.30;1.00
26378;DHT22;14078;50.974;6.786;2023-02-28T09:18:55;2.30;1.00
26378;DHT22;14078;50.974;6.786;2023-02-28T09:21:21;2.30;1.00
26378;DHT22;14078;50.974;6.786;2023-02-28T09:23:49;2.40;1.00
26378;DHT22;14078;50.974;6.786;2023-02-28T09:26:17;2.40;1.00
26378;DHT22;14078;50.974;6.786;2023-02-28T09:28:44;2.40;1.00
26378;DHT22;14078;50.974;6.786;2023-02-28T09:31:11;2.40;1.00
26378;DHT22;14078;50.974;6.786;2023-02-28T09:33:38;2.40;1.00
26378;DHT22;14078;50.974;6.786;2023-02-28T09:36:05;2.40;1.00
26378;DHT22;14078;50.974;6.786;2023-02-28T09:38:32;2.50;1.00
26378;DHT22;14078;50.974;6.786;2023-02-28T09:41:00;2.50;1.00
26378;DHT22;14078;50.974;6.786;2023-02-28T09:43:28;2.50;1.00
26378;DHT22;14078;50.974;6.786;2023-02-28T09:45:56;2.60;1.00
26378;DHT22;14078;50.974;6.786;2023-02-28T09:48:28;2.70;1.00
26378;DHT22;14078;50.974;6.786;2023-02-28T09:50:59;2.70;1.00
26378;DHT22;14078;50.974;6.786;2023-02-28T09:53:27;2.60;1.00
26378;DHT22;14078;50.974;6.786;2023-02-28T09:56:01;2.70;1.00
26378;DHT22;14078;50.974;6.786;2023-02-28T09:58:28;2.70;1.00
26378;DHT22;14078;50.974;6.786;2023-02-28T10:00:58;2.80;1.00
26378;DHT22;14078;50.974;6.786;2023-02-28T10:03:28;2.80;1.00
26378;DHT22;14078;50.974;6.786;2023-02-28T10:05:57;2.80;1.00
26378;DHT22;14078;50.974;6.786;2023-02-28T10:08:25;2.90;1.00
26378;DHT22;14078;50.974;6.786;2023-02-28T10:10:53;2.80;1.00
26378;DHT22;14078;50.974;6.786;2023-02-28T10:13:23;2.90;1.00
26378;DHT22;14078;50.974;6.786;2023-02-28T10:15:52;2.80;1.00
26378;DHT22;14078;50.974;6.786;2023-02-28T10:18:21;2.90;1.00
26378;DHT22;14078;50.974;6.786;2023-02-28T10:20:49;2.90;1.00
26378;DHT22;14078;50.974;6.786;2023-02-28T10:23:19;3.10;1.00
26378;DHT22;14078;50.974;6.786;2023-02-28T10:25:48;3.00;1.00
26378;DHT22;14078;50.974;6.786;2023-02-28T10:28:16;3.10;1.00
26378;DHT22;14078;50.974;6.786;2023-02-28T10:30:46;3.20;1.00
26378;DHT22;14078;50.974;6.786;2023-02-28T10:33:23;3.20;1.00
26378;DHT22;14078;50.974;6.786;2023-02-28T10:35:49;3.30;1.00
26378;DHT22;14078;50.974;6.786;2023-02-28T10:38:17;3.40;1.00
26378;DHT22;14078;50.974;6.786;2023-02-28T10:40:44;3.40;1.00
26378;DHT22;14078;50.974;6.786;2023-02-28T10:43:18;3.30;1.00
26378;DHT22;14078;50.974;6.786;2023-02-28T10:45:53;3.30;1.00
26378;DHT22;14078;50.974;6.786;2023-02-28T10:48:29;3.40;1.00
26378;DHT22;14078;50.974;6.786;2023-02-28T10:50:56;3.40;1.00
26378;DHT22;14078;50.974;6.786;2023-02-28T10:53:31;3.30;1.00
26378;DHT22;14078;50.974;6.786;2023-02-28T10:55:59;3.30;1.00
26378;DHT22;14078;50.974;6.786;2023-02-28T10:58:26;3.30;1.00
26378;DHT22;14078;50.974;6.786;2023-02-28T11:00:55;3.40;1.00
26378;DHT22;14078;50.974;6.786;2023-02-28T11:03:23;3.40;1.00
26378;DHT22;14078;50.974;6.786;2023-02-28T11:05:49;3.40;1.00
26378;DHT22;14078;50.974;6.786;2023-02-28T11:08:16;3.40;1.00
26378;DHT22;14078;50.974;6.786;2023-02-28T11:10:44;3.40;1.00
26378;DHT22;14078;50.974;6.786;2023-02-28T11:13:15;3.50;1.00
26378;DHT22;14078;50.974;6.786;2023-02-28T11:15:43;3.50;1.00
26378;DHT22;14078;50.974;6.786;2023-02-28T11:18:21;3.60;1.00
26378;DHT22;14078;50.974;6.786;2023-02-28T11:20:49;3.50;1.00
26378;DHT22;14078;50.974;6.786;2023-02-28T11:23:16;3.60;1.00
26378;DHT22;14078;50.974;6.786;2023-02-28T11:25:46;3.60;1.00
26378;DHT22;14078;50.974;6.786;2023-02-28T11:28:23;3.50;1.00
26378;DHT22;14078;50.974;6.786;2023-02-28T11:30:59;3.60;1.00
26378;DHT22;14078;50.974;6.786;2023-02-28T11:33:28;3.70;1.00
26378;DHT22;14078;50.974;6.786;2023-02-28T11:35:57;3.70;1.00
26378;DHT22;14078;50.974;6.786;2023-02-28T11:38:25;3.70;1.00
26378;DHT22;14078;50.974;6.786;2023-02-28T11:40:56;3.70;1.00
26378;DHT22;14078;50.974;6.786;2023-02-28T11:43:30;3.80;1.00
26378;DHT22;14078;50.974;6.786;2023-02-28T11:46:07;3.80;1.00
26378;DHT22;14078;50.974;6.786;2023-02-28T11:48:44;3.60;1.00
26378;DHT22;14078;50.974;6.786;2023-02-28T11:51:14;3.70;1.00
26378;DHT22;14078;50.974;6.786;2023-02-28T11:53:50;3.70;1.00
26378;DHT22;14078;50.974;6.786;2023-02-28T11:56:20;3.70;1.00
26378;DHT22;14078;50.974;6.786;2023-02-28T11:58:50;3.70;1.00
26378;DHT22;14078;50.974;6.786;2023-02-28T12:01:21;3.90;1.00
26378;DHT22;14078;50.974;6.786;2023-02-28T12:03:56;3.90;1.00
26378;DHT22;14078;50.974;6.786;2023-02-28T12:06:25;4.00;1.00
26378;DHT22;14078;50.974;6.786;2023-02-28T12:08:59;4.10;1.00
26378;DHT22;14078;50.974;6.786;2023-02-28T12:11:30;4.20;1.00
26378;DHT22;14078;50.974;6.786;2023-02-28T12:14:00;4.20;1.00
26378;DHT22;14078;50.974;6.786;2023-02-28T12:16:45;4.20;1.00
26378;DHT22;14078;50.974;6.786;2023-02-28T12:19:17;4.30;1.00
26378;DHT22;14078;50.974;6.786;2023-02-28T12:21:48;4.30;1.00
26378;DHT22;14078;50.974;6.786;2023-02-28T12:24:29;4.30;1.00
26378;DHT22;14078;50.974;6.786;2023-02-28T12:27:00;4.40;1.00
26378;DHT22;14078;50.974;6.786;2023-02-28T12:29:28;4.40;1.00
26378;DHT22;14078;50.974;6.786;2023-02-28T12:31:55;4.20;1.00
26378;DHT22;14078;50.974;6.786;2023-02-28T12:34:25;4.10;1.00
26378;DHT22;14078;50.974;6.786;2023-02-28T12:36:53;4.00;1.00
26378;DHT22;14078;50.974;6.786;2023-02-28T12:39:23;3.90;1.00
26378;DHT22;14078;50.974;6.786;2023-02-28T12:41:53;4.00;1.00
26378;DHT22;14078;50.974;6.786;2023-02-28T12:44:21;4.10;1.00
26378;DHT22;14078;50.974;6.786;2023-02-28T12:46:49;4.20;1.00
26378;DHT22;14078;50.974;6.786;2023-02-28T12:49:17;4.30;1.00
26378;DHT22;14078;50.974;6.786;2023-02-28T12:51:46;4.40;1.00
26378;DHT22;14078;50.974;6.786;2023-02-28T12:54:16;4.50;1.00
26378;DHT22;14078;50.974;6.786;2023-02-28T12:56:47;4.40;1.00
26378;DHT22;14078;50.974;6.786;2023-02-28T12:59:17;4.40;1.00
26378;DHT22;14078;50.974;6.786;2023-02-28T13:01:55;4.40;1.00
26378;DHT22;14078;50.974;6.786;2023-02-28T13:04:40;4.40;1.00
26378;DHT22;14078;50.974;6.786;2023-02-28T13:07:17;4.50;1.00
26378;DHT22;14078;50.974;6.786;2023-02-28T13:09:53;4.60;1.00
26378;DHT22;14078;50.974;6.786;2023-02-28T13:12:20;4.50;1.00
26378;DHT22;14078;50.974;6.786;2023-02-28T13:14:48;4.50;1.00
26378;DHT22;14078;50.974;6.786;2023-02-28T13:17:17;4.60;1.00
26378;DHT22;14078;50.974;6.786;2023-02-28T13:19:45;4.60;1.00
26378;DHT22;14078;50.974;6.786;2023-02-28T13:22:18;4.60;1.00
26378;DHT22;14078;50.974;6.786;2023-02-28T13:24:46;4.70;1.00
26378;DHT22;14078;50.974;6.786;2023-02-28T13:29:57;4.80;1.00
26378;DHT22;14078;50.974;6.786;2023-02-28T13:35:12;4.90;1.00
26378;DHT22;14078;50.974;6.786;2023-02-28T13:37:43;4.90;1.00
26378;DHT22;14078;50.974;6.786;2023-02-28T13:40:29;4.90;1.00
26378;DHT22;14078;50.974;6.786;2023-02-28T13:43:02;4.90;1.00
26378;DHT22;14078;50.974;6.786;2023-02-28T13:45:29;5.00;1.00
26378;DHT22;14078;50.974;6.786;2023-02-28T13:47:58;4.80;1.00
26378;DHT22;14078;50.974;6.786;2023-02-28T13:50:31;4.80;1.00
26378;DHT22;14078;50.974;6.786;2023-02-28T13:55:45;4.90;1.00
26378;DHT22;14078;50.974;6.786;2023-02-28T13:58:26;5.00;1.00
26378;DHT22;14078;50.974;6.786;2023-02-28T14:01:07;5.00;1.00
26378;DHT22;14078;50.974;6.786;2023-02-28T14:03:40;5.00;1.00
26378;DHT22;14078;50.974;6.786;2023-02-28T14:06:10;5.00;1.00
26378;DHT22;14078;50.974;6.786;2023-02-28T14:08:44;5.10;1.00
26378;DHT22;14078;50.974;6.786;2023-02-28T14:11:23;5.10;1.00
26378;DHT22;14078;50.974;6.786;2023-02-28T14:13:50;5.20;1.00
26378;DHT22;14078;50.974;6.786;2023-02-28T14:16:17;5.10;1.00
26378;DHT22;14078;50.974;6.786;2023-02-28T14:18:48;5.10;1.00
26378;DHT22;14078;50.974;6.786;2023-02-28T14:21:21;5.10;1.00
26378;DHT22;14078;50.974;6.786;2023-02-28T14:26:51;5.20;1.00
26378;DHT22;14078;50.974;6.786;2023-02-28T14:29:30;5.20;1.00
26378;DHT22;14078;50.974;6.786;2023-02-28T14:32:01;5.20;1.00
26378;DHT22;14078;50.974;6.786;2023-02-28T14:34:35;5.20;1.00
26378;DHT22;14078;50.974;6.786;2023-02-28T14:37:02;5.10;1.00
26378;DHT22;14078;50.974;6.786;2023-02-28T14:39:29;5.10;1.00
26378;DHT22;14078;50.974;6.786;2023-02-28T14:41:59;5.20;1.00
26378;DHT22;14078;50.974;6.786;2023-02-28T14:44:29;5.20;1.00
26378;DHT22;14078;50.974;6.786;2023-02-28T14:46:56;5.30;1.00
26378;DHT22;14078;50.974;6.786;2023-02-28T14:49:24;5.20;1.00
26378;DHT22;14078;50.974;6.786;2023-02-28T14:52:01;5.30;1.00
26378;DHT22;14078;50.974;6.786;2023-02-28T14:54:28;5.30;1.00
26378;DHT22;14078;50.974;6.786;2023-02-28T14:56:55;5.30;1.00
26378;DHT22;14078;50.974;6.786;2023-02-28T14:59:27;5.20;1.00
26378;DHT22;14078;50.974;6.786;2023-02-28T15:04:57;5.20;1.00
26378;DHT22;14078;50.974;6.786;2023-02-28T15:07:24;5.30;1.00
26378;DHT22;14078;50.974;6.786;2023-02-28T15:10:10;5.30;1.00
26378;DHT22;14078;50.974;6.786;2023-02-28T15:12:37;5.30;1.00
26378;DHT22;14078;50.974;6.786;2023-02-28T15:15:13;5.30;1.00
26378;DHT22;14078;50.974;6.786;2023-02-28T15:17:40;5.30;1.00
26378;DHT22;14078;50.974;6.786;2023-02-28T15:20:10;5.30;1.00
26378;DHT22;14078;50.974;6.786;2023-02-28T15:22:38;5.20;1.00
26378;DHT22;14078;50.974;6.786;2023-02-28T15:25:05;5.20;1.00
26378;DHT22;14078;50.974;6.786;2023-02-28T15:27:33;5.20;1.00
26378;DHT22;14078;50.974;6.786;2023-02-28T15:30:04;5.20;1.00
26378;DHT22;14078;50.974;6.786;2023-02-28T15:32:33;5.10;1.00
26378;DHT22;14078;50.974;6.786;2023-02-28T15:37:46;5.10;1.00
26378;DHT22;14078;50.974;6.786;2023-02-28T15:40:14;5.00;99.90
26378;DHT22;14078;50.974;6.786;2023-02-28T15:42:41;5.00;1.00
26378;DHT22;14078;50.974;6.786;2023-02-28T15:45:28;5.00;1.00
26378;DHT22;14078;50.974;6.786;2023-02-28T15:47:59;5.10;1.00
26378;DHT22;14078;50.974;6.786;2023-02-28T15:50:27;5.00;1.00
26378;DHT22;14078;50.974;6.786;2023-02-28T15:52:53;5.00;1.00
26378;DHT22;14078;50.974;6.786;2023-02-28T15:55:21;4.90;1.00
26378;DHT22;14078;50.974;6.786;2023-02-28T15:57:49;4.90;1.00
26378;DHT22;14078;50.974;6.786;2023-02-28T16:00:19;4.90;1.00
26378;DHT22;14078;50.974;6.786;2023-02-28T16:02:45;4.80;1.00
26378;DHT22;14078;50.974;6.786;2023-02-28T16:05:19;4.80;1.00
26378;DHT22;14078;50.974;6.786;2023-02-28T16:07:50;4.80;1.00
26378;DHT22;14078;50.974;6.786;2023-02-28T16:10:16;4.80;99.90
26378;DHT22;14078;50.974;6.786;2023-02-28T16:12:43;4.80;99.90
26378;DHT22;14078;50.974;6.786;2023-02-28T16:15:17;4.70;1.00
26378;DHT22;14078;50.974;6.786;2023-02-28T16:17:43;4.70;1.00
26378;DHT22;14078;50.974;6.786;2023-02-28T16:20:12;4.70;99.90
26378;DHT22;14078;50.974;6.786;2023-02-28T16:22:41;4.60;1.00
26378;DHT22;14078;50.974;6.786;2023-02-28T16:25:08;4.50;1.00
26378;DHT22;14078;50.974;6.786;2023-02-28T16:27:35;4.50;1.00